sensor_id;sensor_type;location;lat;lon;timestamp;pressure;altitude;pressure_sealevel;temperature;humidity
17781;BME280;8498;52.516;13.790;2023-03-03T00:04:54;101828.56;;;1.76;93.92
17781;BME280;8498;52.516;13.790;2023-03-03T00:10:17;101832.06;;;1.75;94.30
17781;BME280;8498;52.516;13.790;2023-03-03T00:15:39;101824.13;;;1.79;94.77
17781;BME280;8498;52.516;13.790;2023-03-03T00:21:27;101823.25;;;1.80;94.67
17781;BME280;8498;52.516;13.790;2023-03-03T00:26:56;101814.63;;;1.74;95.33
17781;BME280;8498;52.516;13.790;2023-03-03T00:32:23;101797.03;;;1.83;95.00
17781;BME280;8498;52.516;13.790;2023-03-03T00:37:46;101802.31;;;1.79;95.18
17781;BME280;8498;52.516;13.790;2023-03-03T00:48:42;101790.19;;;1.73;94.89
17781;BME280;8498;52.516;13.790;2023-03-03T00:54:04;101790.22;;;1.69;94.92
17781;BME280;8498;52.516;13.790;2023-03-03T00:59:27;101785.00;;;1.69;94.73
17781;BME280;8498;52.516;13.790;2023-03-03T01:04:51;101779.72;;;1.72;94.04
17781;BME280;8498;52.516;13.790;2023-03-03T01:10:14;101773.66;;;1.67;95.13
17781;BME280;8498;52.516;13.790;2023-03-03T01:15:38;101777.19;;;1.66;94.96
17781;BME280;8498;52.516;13.790;2023-03-03T01:21:01;101771.91;;;1.67;95.09
17781;BME280;8498;52.516;13.790;2023-03-03T01:26:23;101766.66;;;1.69;95.13
17781;BME280;8498;52.516;13.790;2023-03-03T01:31:46;101755.16;;;1.79;95.25
17781;BME280;8498;52.516;13.790;2023-03-03T01:37:09;101755.25;;;1.73;94.90
17781;BME280;8498;52.516;13.790;2023-03-03T01:42:31;101749.06;;;1.77;95.08
17781;BME280;8498;52.516;13.790;2023-03-03T01:48:15;101750.88;;;1.73;94.87
17781;BME280;8498;52.516;13.790;2023-03-03T01:53:52;101742.13;;;1.74;95.33
17781;BME280;8498;52.516;13.790;2023-03-03T01:59:22;101740.38;;;1.76;95.20
17781;BME280;8498;52.516;13.790;2023-03-03T02:04:48;101738.56;;;1.78;94.90
17781;BME280;8498;52.516;13.790;2023-03-03T02:10:13;101762.22;;;1.74;95.22
17781;BME280;8498;52.516;13.790;2023-03-03T02:15:36;101762.38;;;1.65;95.50
17781;BME280;8498;52.516;13.790;2023-03-03T02:21:11;101746.66;;;1.65;95.88
17781;BME280;8498;52.516;13.790;2023-03-03T02:26:39;101761.50;;;1.64;96.16
17781;BME280;8498;52.516;13.790;2023-03-03T02:32:04;101758.91;;;1.63;96.07
17781;BME280;8498;52.516;13.790;2023-03-03T02:37:29;101755.44;;;1.59;96.76
17781;BME280;8498;52.516;13.790;2023-03-03T02:42:52;101751.78;;;1.71;96.83
17781;BME280;8498;52.516;13.790;2023-03-03T02:48:16;101752.47;;;1.85;96.55
17781;BME280;8498;52.516;13.790;2023-03-03T02:53:39;101746.25;;;1.89;96.15
17781;BME280;8498;52.516;13.790;2023-03-03T02:59:02;101753.16;;;1.96;95.81
17781;BME280;8498;52.516;13.790;2023-03-03T03:04:27;101758.44;;;1.93;95.34
17781;BME280;8498;52.516;13.790;2023-03-03T03:09:50;101747.13;;;1.91;95.40
17781;BME280;8498;52.516;13.790;2023-03-03T03:15:13;101773.34;;;1.88;95.35
17781;BME280;8498;52.516;13.790;2023-03-03T03:20:37;101774.16;;;1.95;95.85
17781;BME280;8498;52.516;13.790;2023-03-03T03:26:03;101782.03;;;1.92;95.79
17781;BME280;8498;52.516;13.790;2023-03-03T03:31:26;101782.16;;;1.84;96.43
17781;BME280;8498;52.516;13.790;2023-03-03T03:36:48;101783.06;;;1.83;97.00
17781;BME280;8498;52.516;13.790;2023-03-03T03:42:12;101789.19;;;1.80;96.86
17781;BME280;8498;52.516;13.790;2023-03-03T03:47:35;101760.31;;;1.85;97.15
17781;BME280;8498;52.516;13.790;2023-03-03T03:52:58;101761.19;;;1.84;96.34
17781;BME280;8498;52.516;13.790;2023-03-03T03:58:21;101755.91;;;1.87;96.05
17781;BME280;8498;52.516;13.790;2023-03-03T04:03:49;101740.84;;;2.01;96.70
17781;BME280;8498;52.516;13.790;2023-03-03T04:09:16;101731.09;;;2.08;96.23
17781;BME280;8498;52.516;13.790;2023-03-03T04:14:41;101734.09;;;1.87;96.94
17781;BME280;8498;52.516;13.790;2023-03-03T04:20:06;101725.22;;;1.95;96.28
17781;BME280;8498;52.516;13.790;2023-03-03T04:25:29;101731.25;;;2.00;95.29
17781;BME280;8498;52.516;13.790;2023-03-03T04:30:51;101733.84;;;2.00;95.52
17781;BME280;8498;52.516;13.790;2023-03-03T04:36:16;101714.66;;;1.98;95.68
17781;BME280;8498;52.516;13.790;2023-03-03T04:41:38;101721.59;;;2.02;96.47
17781;BME280;8498;52.516;13.790;2023-03-03T04:47:01;101724.28;;;1.98;95.87
17781;BME280;8498;52.516;13.790;2023-03-03T04:52:24;101728.72;;;1.94;96.37
17781;BME280;8498;52.516;13.790;2023-03-03T04:57:46;101721.09;;;1.79;96.15
17781;BME280;8498;52.516;13.790;2023-03-03T05:03:10;101728.00;;;1.84;96.07
17781;BME280;8498;52.516;13.790;2023-03-03T05:08:36;101727.22;;;1.78;96.21
17781;BME280;8498;52.516;13.790;2023-03-03T05:13:58;101722.81;;;1.80;96.58
17781;BME280;8498;52.516;13.790;2023-03-03T05:19:20;101716.78;;;1.76;96.02
17781;BME280;8498;52.516;13.790;2023-03-03T05:24:43;101722.22;;;1.63;96.26
17781;BME280;8498;52.516;13.790;2023-03-03T05:30:05;101716.97;;;1.66;96.44
17781;BME280;8498;52.516;13.790;2023-03-03T05:35:28;101734.34;;;1.70;96.44
17781;BME280;8498;52.516;13.790;2023-03-03T05:40:50;101753.63;;;1.66;95.88
17781;BME280;8498;52.516;13.790;2023-03-03T05:46:13;101758.88;;;1.66;96.11
17781;BME280;8498;52.516;13.790;2023-03-03T05:51:35;101751.75;;;1.74;95.91
17781;BME280;8498;52.516;13.790;2023-03-03T05:56:57;101764.16;;;1.60;95.11
17781;BME280;8498;52.516;13.790;2023-03-03T06:02:20;101757.16;;;1.62;95.16
17781;BME280;8498;52.516;13.790;2023-03-03T06:07:42;101762.44;;;1.59;94.91
17781;BME280;8498;52.516;13.790;2023-03-03T06:13:06;101748.00;;;1.29;95.02
17781;BME280;8498;52.516;13.790;2023-03-03T06:18:28;101751.38;;;1.37;95.56
17781;BME280;8498;52.516;13.790;2023-03-03T06:23:51;101765.19;;;1.50;95.20
17781;BME280;8498;52.516;13.790;2023-03-03T06:29:13;101766.91;;;1.52;94.86
17781;BME280;8498;52.516;13.790;2023-03-03T06:34:37;101778.94;;;1.65;94.69
17781;BME280;8498;52.516;13.790;2023-03-03T06:39:59;101790.59;;;1.41;93.49
17781;BME280;8498;52.516;13.790;2023-03-03T06:45:21;101788.75;;;1.50;94.00
17781;BME280;8498;52.516;13.790;2023-03-03T06:50:43;101783.50;;;1.50;93.05
17781;BME280;8498;52.516;13.790;2023-03-03T06:56:08;101804.47;;;1.50;93.08
17781;BME280;8498;52.516;13.790;2023-03-03T07:01:34;101816.69;;;1.47;93.56
17781;BME280;8498;52.516;13.790;2023-03-03T07:06:59;101811.34;;;1.57;93.36
17781;BME280;8498;52.516;13.790;2023-03-03T07:12:28;101814.91;;;1.53;93.01
17781;BME280;8498;52.516;13.790;2023-03-03T07:17:55;101823.78;;;1.39;93.04
17781;BME280;8498;52.516;13.790;2023-03-03T07:23:27;101821.19;;;1.36;93.42
17781;BME280;8498;52.516;13.790;2023-03-03T07:28:56;101822.88;;;1.45;93.81
17781;BME280;8498;52.516;13.790;2023-03-03T07:34:22;101834.28;;;1.36;93.14
17781;BME280;8498;52.516;13.790;2023-03-03T07:39:46;101840.50;;;1.28;93.11
17781;BME280;8498;52.516;13.790;2023-03-03T07:45:27;101845.75;;;1.28;93.70
17781;BME280;8498;52.516;13.790;2023-03-03T07:50:51;101854.41;;;1.33;93.52
17781;BME280;8498;52.516;13.790;2023-03-03T08:01:54;101846.34;;;1.51;93.11
17781;BME280;8498;52.516;13.790;2023-03-03T08:07:19;101845.34;;;1.61;93.14
17781;BME280;8498;52.516;13.790;2023-03-03T08:12:42;101835.44;;;1.84;92.99
17781;BME280;8498;52.516;13.790;2023-03-03T08:18:20;101839.69;;;1.92;91.94
17781;BME280;8498;52.516;13.790;2023-03-03T08:23:43;101839.84;;;1.81;91.64
17781;BME280;8498;52.516;13.790;2023-03-03T08:29:05;101848.66;;;1.75;92.38
17781;BME280;8498;52.516;13.790;2023-03-03T08:34:28;101853.41;;;1.44;93.04
17781;BME280;8498;52.516;13.790;2023-03-03T08:39:50;101846.06;;;1.72;92.89
17781;BME280;8498;52.516;13.790;2023-03-03T08:45:12;101848.72;;;1.69;92.56
17781;BME280;8498;52.516;13.790;2023-03-03T08:50:35;101844.31;;;1.73;92.86
17781;BME280;8498;52.516;13.790;2023-03-03T08:55:58;101837.09;;;1.90;91.72
17781;BME280;8498;52.516;13.790;2023-03-03T09:01:20;101845.63;;;2.04;91.76
17781;BME280;8498;52.516;13.790;2023-03-03T09:06:42;101846.47;;;2.06;91.23
17781;BME280;8498;52.516;13.790;2023-03-03T09:12:21;101848.31;;;2.00;91.73
17781;BME280;8498;52.516;13.790;2023-03-03T09:17:46;101836.94;;;1.99;92.34
17781;BME280;8498;52.516;13.790;2023-03-03T09:29:00;101841.69;;;2.34;90.43
17781;BME280;8498;52.516;13.790;2023-03-03T09:34:39;101840.06;;;2.26;89.94
17781;BME280;8498;52.516;13.790;2023-03-03T09:40:29;101844.13;;;2.45;89.89
17781;BME280;8498;52.516;13.790;2023-03-03T09:58:06;101837.06;;;2.99;87.98
17781;BME280;8498;52.516;13.790;2023-03-03T10:25:28;101830.69;;;3.55;85.14
17781;BME280;8498;52.516;13.790;2023-03-03T10:54:08;101842.94;;;3.96;84.47
17781;BME280;8498;52.516;13.790;2023-03-03T11:11:06;101839.13;;;4.11;82.03
17781;BME280;8498;52.516;13.790;2023-03-03T11:16:50;101827.25;;;4.30;81.67
17781;BME280;8498;52.516;13.790;2023-03-03T11:22:39;101827.06;;;4.38;80.70
17781;BME280;8498;52.516;13.790;2023-03-03T11:33:43;101826.38;;;4.67;80.50
17781;BME280;8498;52.516;13.790;2023-03-03T11:39:19;101829.25;;;4.90;79.96
17781;BME280;8498;52.516;13.790;2023-03-03T11:44:46;101814.69;;;4.77;78.95
17781;BME280;8498;52.516;13.790;2023-03-03T11:50:19;101817.47;;;4.71;80.26
17781;BME280;8498;52.516;13.790;2023-03-03T11:55:44;101809.66;;;5.00;79.64
17781;BME280;8498;52.516;13.790;2023-03-03T12:01:37;101792.59;;;5.15;78.14
17781;BME280;8498;52.516;13.790;2023-03-03T12:07:17;101800.97;;;4.98;78.52
17781;BME280;8498;52.516;13.790;2023-03-03T12:12:49;101773.50;;;5.38;77.35
17781;BME280;8498;52.516;13.790;2023-03-03T12:29:49;101751.91;;;5.82;75.73
17781;BME280;8498;52.516;13.790;2023-03-03T12:41:35;101754.44;;;5.85;74.46
17781;BME280;8498;52.516;13.790;2023-03-03T12:47:07;101748.28;;;5.86;75.27
17781;BME280;8498;52.516;13.790;2023-03-03T12:58:15;101735.09;;;5.86;75.29
17781;BME280;8498;52.516;13.790;2023-03-03T13:15:22;101719.41;;;5.82;76.19
17781;BME280;8498;52.516;13.790;2023-03-03T13:26:44;101710.19;;;5.97;75.12
17781;BME280;8498;52.516;13.790;2023-03-03T13:32:23;101724.22;;;5.69;76.37
17781;BME280;8498;52.516;13.790;2023-03-03T13:37:55;101703.75;;;5.77;76.29
17781;BME280;8498;52.516;13.790;2023-03-03T13:43:25;101707.56;;;5.67;76.99
17781;BME280;8498;52.516;13.790;2023-03-03T13:54:35;101718.03;;;5.70;77.58
17781;BME280;8498;52.516;13.790;2023-03-03T14:06:06;101697.91;;;5.96;79.27
17781;BME280;8498;52.516;13.790;2023-03-03T14:11:53;101694.13;;;6.03;76.83
17781;BME280;8498;52.516;13.790;2023-03-03T14:17:33;101677.06;;;5.86;76.41
17781;BME280;8498;52.516;13.790;2023-03-03T14:23:30;101678.94;;;5.83;77.16
17781;BME280;8498;52.516;13.790;2023-03-03T14:34:41;101664.06;;;6.08;76.75
17781;BME280;8498;52.516;13.790;2023-03-03T14:40:20;101660.78;;;6.02;76.75
17781;BME280;8498;52.516;13.790;2023-03-03T14:45:43;101653.34;;;6.13;76.57
17781;BME280;8498;52.516;13.790;2023-03-03T14:51:26;101639.09;;;6.18;76.58
17781;BME280;8498;52.516;13.790;2023-03-03T15:08:33;101637.03;;;6.02;76.95
17781;BME280;8498;52.516;13.790;2023-03-03T15:14:15;101635.09;;;5.80;78.17
17781;BME280;8498;52.516;13.790;2023-03-03T15:42:35;101602.75;;;6.02;82.56
17781;BME280;8498;52.516;13.790;2023-03-03T15:48:13;101605.56;;;6.45;76.96
17781;BME280;8498;52.516;13.790;2023-03-03T16:16:27;101591.16;;;5.27;81.61
17781;BME280;8498;52.516;13.790;2023-03-03T16:29:08;101601.31;;;5.39;81.79
17781;BME280;8498;52.516;13.790;2023-03-03T16:34:18;101595.72;;;5.20;82.35
17781;BME280;8498;52.516;13.790;2023-03-03T16:45:33;101594.59;;;5.01;83.01
17781;BME280;8498;52.516;13.790;2023-03-03T16:57:04;101597.91;;;5.07;82.89
17781;BME280;8498;52.516;13.790;2023-03-03T17:09:11;101586.44;;;6.15;81.44
17781;BME280;8498;52.516;13.790;2023-03-03T17:15:14;101585.50;;;5.39;80.88
17781;BME280;8498;52.516;13.790;2023-03-03T17:20:52;101580.25;;;5.09;82.04
17781;BME280;8498;52.516;13.790;2023-03-03T17:32:34;101576.06;;;4.76;82.56
17781;BME280;8498;52.516;13.790;2023-03-03T17:44:10;101574.41;;;4.42;83.56
17781;BME280;8498;52.516;13.790;2023-03-03T17:49:48;101572.91;;;4.34;84.10
17781;BME280;8498;52.516;13.790;2023-03-03T18:01:19;101581.38;;;4.13;83.76
17781;BME280;8498;52.516;13.790;2023-03-03T18:23:48;101556.41;;;4.27;85.75
17781;BME280;8498;52.516;13.790;2023-03-03T18:29:21;101554.56;;;4.31;86.41
17781;BME280;8498;52.516;13.790;2023-03-03T18:34:44;101551.94;;;4.31;87.35
17781;BME280;8498;52.516;13.790;2023-03-03T18:50:51;101552.69;;;4.65;87.11
17781;BME280;8498;52.516;13.790;2023-03-03T19:13:07;101527.56;;;4.83;86.83
17781;BME280;8498;52.516;13.790;2023-03-03T19:24:32;101519.53;;;4.88;86.36
17781;BME280;8498;52.516;13.790;2023-03-03T19:30:12;101515.78;;;4.95;86.29
17781;BME280;8498;52.516;13.790;2023-03-03T19:47:15;101508.22;;;4.84;86.36
17781;BME280;8498;52.516;13.790;2023-03-03T19:59:02;101495.97;;;4.83;86.60
17781;BME280;8498;52.516;13.790;2023-03-03T20:27:22;101471.28;;;4.87;86.04
17781;BME280;8498;52.516;13.790;2023-03-03T21:07:34;101453.34;;;5.25;84.00
17781;BME280;8498;52.516;13.790;2023-03-03T21:13:25;101466.00;;;5.40;81.75
17781;BME280;8498;52.516;13.790;2023-03-03T21:30:14;101449.88;;;5.49;78.14
17781;BME280;8498;52.516;13.790;2023-03-03T21:35:56;101444.00;;;5.41;77.51
17781;BME280;8498;52.516;13.790;2023-03-03T21:41:19;101437.81;;;5.42;77.61
17781;BME280;8498;52.516;13.790;2023-03-03T21:46:41;101436.63;;;5.50;77.17
17781;BME280;8498;52.516;13.790;2023-03-03T21:52:04;101425.13;;;5.53;77.10
17781;BME280;8498;52.516;13.790;2023-03-03T21:57:26;101422.44;;;5.54;76.99
17781;BME280;8498;52.516;13.790;2023-03-03T22:02:49;101416.06;;;5.37;77.46
17781;BME280;8498;52.516;13.790;2023-03-03T22:08:12;101403.88;;;5.33;77.38
17781;BME280;8498;52.516;13.790;2023-03-03T22:13:34;101396.81;;;5.35;77.20
17781;BME280;8498;52.516;13.790;2023-03-03T22:18:56;101388.25;;;5.28;77.14
17781;BME280;8498;52.516;13.790;2023-03-03T22:24:19;101391.44;;;5.38;76.75
17781;BME280;8498;52.516;13.790;2023-03-03T22:29:41;101391.47;;;5.36;77.19
17781;BME280;8498;52.516;13.790;2023-03-03T22:35:04;101384.53;;;5.34;76.84
17781;BME280;8498;52.516;13.790;2023-03-03T22:40:27;101385.00;;;5.20;77.21
17781;BME280;8498;52.516;13.790;2023-03-03T22:45:49;101377.88;;;5.24;77.28
17781;BME280;8498;52.516;13.790;2023-03-03T22:51:12;101351.38;;;5.28;77.20
17781;BME280;8498;52.516;13.790;2023-03-03T22:56:34;101356.66;;;5.28;77.52
17781;BME280;8498;52.516;13.790;2023-03-03T23:01:57;101345.34;;;5.25;77.23
17781;BME280;8498;52.516;13.790;2023-03-03T23:07:19;101329.94;;;5.14;77.42
17781;BME280;8498;52.516;13.790;2023-03-03T23:12:41;101335.03;;;5.19;77.37
17781;BME280;8498;52.516;13.790;2023-03-03T23:18:04;101308.69;;;4.94;78.28
17781;BME280;8498;52.516;13.790;2023-03-03T23:23:26;101299.84;;;4.96;78.38
17781;BME280;8498;52.516;13.790;2023-03-03T23:28:50;101275.09;;;5.00;78.17
17781;BME280;8498;52.516;13.790;2023-03-03T23:34:13;101292.38;;;4.84;79.32
17781;BME280;8498;52.516;13.790;2023-03-03T23:39:35;101296.31;;;4.71;80.46
17781;BME280;8498;52.516;13.790;2023-03-03T23:44:57;101305.34;;;4.64;81.31
17781;BME280;8498;52.516;13.790;2023-03-03T23:50:20;101306.72;;;4.75;81.16
17781;BME280;8498;52.516;13.790;2023-03-03T23:55:42;101305.56;;;4.83;81.39
